sensor_id;sensor_type;location;lat;lon;timestamp;pressure;altitude;pressure_sealevel;temperature;humidity
10796;BME280;5450;42.994;23.372;2022-09-23T00:00:58;96645.00;;;7.15;100.00
10796;BME280;5450;42.994;23.372;2022-09-23T00:03:27;96694.25;;;7.29;100.00
10796;BME280;5450;42.994;23.372;2022-09-23T00:06:00;96621.50;;;6.96;100.00
10796;BME280;5450;42.994;23.372;2022-09-23T00:08:28;96599.09;;;6.74;100.00
10796;BME280;5450;42.994;23.372;2022-09-23T00:10:55;96582.88;;;6.71;100.00
10796;BME280;5450;42.994;23.372;2022-09-23T00:13:23;96652.16;;;7.13;100.00
10796;BME280;5450;42.994;23.372;2022-09-23T00:15:51;96683.66;;;7.12;100.00
10796;BME280;5450;42.994;23.372;2022-09-23T00:18:18;96684.06;;;7.07;100.00
10796;BME280;5450;42.994;23.372;2022-09-23T00:20:46;96583.94;;;6.40;100.00
10796;BME280;5450;42.994;23.372;2022-09-23T00:23:18;96601.69;;;6.74;100.00
10796;BME280;5450;42.994;23.372;2022-09-23T00:25:54;96643.91;;;7.08;100.00
10796;BME280;5450;42.994;23.372;2022-09-23T00:28:21;96642.81;;;7.01;100.00
10796;BME280;5450;42.994;23.372;2022-09-23T00:30:49;96636.75;;;6.91;100.00
10796;BME280;5450;42.994;23.372;2022-09-23T00:33:16;96598.41;;;6.72;100.00
10796;BME280;5450;42.994;23.372;2022-09-23T00:35:45;96603.47;;;6.74;100.00
10796;BME280;5450;42.994;23.372;2022-09-23T00:38:13;96593.59;;;6.68;100.00
10796;BME280;5450;42.994;23.372;2022-09-23T00:40:45;96531.16;;;6.27;100.00
10796;BME280;5450;42.994;23.372;2022-09-23T00:43:13;96679.66;;;7.17;100.00
10796;BME280;5450;42.994;23.372;2022-09-23T00:45:41;96558.66;;;6.50;100.00
10796;BME280;5450;42.994;23.372;2022-09-23T00:48:21;96650.38;;;7.23;100.00
10796;BME280;5450;42.994;23.372;2022-09-23T00:50:55;96665.34;;;7.21;100.00
10796;BME280;5450;42.994;23.372;2022-09-23T00:53:25;96568.56;;;6.75;100.00
10796;BME280;5450;42.994;23.372;2022-09-23T00:56:02;96595.78;;;7.01;100.00
10796;BME280;5450;42.994;23.372;2022-09-23T00:58:33;96618.34;;;6.93;100.00
10796;BME280;5450;42.994;23.372;2022-09-23T01:01:02;96652.72;;;7.07;100.00
10796;BME280;5450;42.994;23.372;2022-09-23T01:03:32;96631.78;;;6.78;100.00
10796;BME280;5450;42.994;23.372;2022-09-23T01:06:04;96668.78;;;6.93;100.00
10796;BME280;5450;42.994;23.372;2022-09-23T01:08:32;96556.72;;;6.33;100.00
10796;BME280;5450;42.994;23.372;2022-09-23T01:11:22;96677.69;;;6.62;100.00
10796;BME280;5450;42.994;23.372;2022-09-23T01:14:17;96643.59;;;6.54;100.00
10796;BME280;5450;42.994;23.372;2022-09-23T01:17:04;96572.72;;;5.99;100.00
10796;BME280;5450;42.994;23.372;2022-09-23T01:20:22;96642.91;;;6.52;100.00
10796;BME280;5450;42.994;23.372;2022-09-23T01:23:31;96544.19;;;5.77;100.00
10796;BME280;5450;42.994;23.372;2022-09-23T01:26:31;96692.75;;;6.58;100.00
10796;BME280;5450;42.994;23.372;2022-09-23T01:29:46;96602.44;;;6.37;100.00
10796;BME280;5450;42.994;23.372;2022-09-23T01:32:37;96614.44;;;6.49;100.00
10796;BME280;5450;42.994;23.372;2022-09-23T01:35:16;96658.47;;;6.82;100.00
10796;BME280;5450;42.994;23.372;2022-09-23T01:37:55;96652.44;;;6.81;100.00
10796;BME280;5450;42.994;23.372;2022-09-23T01:40:29;96649.91;;;6.61;100.00
10796;BME280;5450;42.994;23.372;2022-09-23T01:43:04;96674.63;;;6.57;100.00
10796;BME280;5450;42.994;23.372;2022-09-23T01:45:39;96664.19;;;6.57;100.00
10796;BME280;5450;42.994;23.372;2022-09-23T01:48:16;96607.81;;;6.26;100.00
10796;BME280;5450;42.994;23.372;2022-09-23T01:50:59;96640.03;;;6.64;100.00
10796;BME280;5450;42.994;23.372;2022-09-23T01:53:35;96617.06;;;6.49;100.00
10796;BME280;5450;42.994;23.372;2022-09-23T01:56:06;96554.97;;;5.93;100.00
10796;BME280;5450;42.994;23.372;2022-09-23T01:58:39;96523.53;;;5.85;100.00
10796;BME280;5450;42.994;23.372;2022-09-23T02:01:10;96640.81;;;6.46;100.00
10796;BME280;5450;42.994;23.372;2022-09-23T02:03:44;96617.97;;;6.29;100.00
10796;BME280;5450;42.994;23.372;2022-09-23T02:06:16;96607.63;;;6.08;100.00
10796;BME280;5450;42.994;23.372;2022-09-23T02:08:50;96640.22;;;6.33;100.00
10796;BME280;5450;42.994;23.372;2022-09-23T02:11:22;96567.84;;;5.85;100.00
10796;BME280;5450;42.994;23.372;2022-09-23T02:13:52;96541.94;;;5.63;100.00
10796;BME280;5450;42.994;23.372;2022-09-23T02:16:25;96540.56;;;5.59;100.00
10796;BME280;5450;42.994;23.372;2022-09-23T02:18:58;96537.75;;;5.81;100.00
10796;BME280;5450;42.994;23.372;2022-09-23T02:21:32;96575.91;;;6.13;100.00
10796;BME280;5450;42.994;23.372;2022-09-23T02:24:04;96594.06;;;6.24;100.00
10796;BME280;5450;42.994;23.372;2022-09-23T02:26:37;96555.94;;;5.62;100.00
10796;BME280;5450;42.994;23.372;2022-09-23T02:29:17;96634.94;;;6.13;100.00
10796;BME280;5450;42.994;23.372;2022-09-23T02:31:55;96540.91;;;5.75;100.00
10796;BME280;5450;42.994;23.372;2022-09-23T02:34:36;96660.06;;;6.45;100.00
10796;BME280;5450;42.994;23.372;2022-09-23T02:37:24;96606.16;;;6.25;100.00
10796;BME280;5450;42.994;23.372;2022-09-23T02:40:00;96531.59;;;5.82;100.00
10796;BME280;5450;42.994;23.372;2022-09-23T02:42:38;96568.88;;;6.03;100.00
10796;BME280;5450;42.994;23.372;2022-09-23T02:45:14;96564.66;;;6.12;100.00
10796;BME280;5450;42.994;23.372;2022-09-23T02:47:47;96547.25;;;5.82;100.00
10796;BME280;5450;42.994;23.372;2022-09-23T02:50:18;96548.88;;;5.83;100.00
10796;BME280;5450;42.994;23.372;2022-09-23T02:52:47;96589.59;;;5.95;100.00
10796;BME280;5450;42.994;23.372;2022-09-23T02:55:18;96620.41;;;6.21;100.00
10796;BME280;5450;42.994;23.372;2022-09-23T02:57:48;96675.66;;;6.35;100.00
10796;BME280;5450;42.994;23.372;2022-09-23T03:00:19;96516.94;;;5.51;100.00
10796;BME280;5450;42.994;23.372;2022-09-23T03:03:18;96670.44;;;6.35;100.00
10796;BME280;5450;42.994;23.372;2022-09-23T03:06:02;96585.16;;;5.86;100.00
10796;BME280;5450;42.994;23.372;2022-09-23T03:08:41;96622.28;;;5.99;100.00
10796;BME280;5450;42.994;23.372;2022-09-23T03:11:15;96615.22;;;5.90;100.00
10796;BME280;5450;42.994;23.372;2022-09-23T03:14:03;96617.56;;;5.93;100.00
10796;BME280;5450;42.994;23.372;2022-09-23T03:16:38;96623.66;;;6.03;100.00
10796;BME280;5450;42.994;23.372;2022-09-23T03:19:18;96699.53;;;6.21;100.00
10796;BME280;5450;42.994;23.372;2022-09-23T03:21:55;96632.31;;;6.04;100.00
10796;BME280;5450;42.994;23.372;2022-09-23T03:24:29;96661.47;;;6.19;100.00
10796;BME280;5450;42.994;23.372;2022-09-23T03:27:00;96539.88;;;5.57;100.00
10796;BME280;5450;42.994;23.372;2022-09-23T03:29:30;96606.34;;;6.02;100.00
10796;BME280;5450;42.994;23.372;2022-09-23T03:32:02;96558.09;;;5.57;100.00
10796;BME280;5450;42.994;23.372;2022-09-23T03:34:37;96693.38;;;6.32;100.00
10796;BME280;5450;42.994;23.372;2022-09-23T03:37:11;96683.78;;;6.02;100.00
10796;BME280;5450;42.994;23.372;2022-09-23T03:39:41;96653.72;;;6.07;100.00
10796;BME280;5450;42.994;23.372;2022-09-23T03:42:14;96689.94;;;6.31;100.00
10796;BME280;5450;42.994;23.372;2022-09-23T03:44:53;96680.19;;;6.24;100.00
10796;BME280;5450;42.994;23.372;2022-09-23T03:47:24;96576.72;;;5.43;100.00
10796;BME280;5450;42.994;23.372;2022-09-23T03:50:06;96619.66;;;5.69;100.00
10796;BME280;5450;42.994;23.372;2022-09-23T03:52:42;96644.91;;;5.78;100.00
10796;BME280;5450;42.994;23.372;2022-09-23T03:55:14;96574.09;;;5.22;100.00
10796;BME280;5450;42.994;23.372;2022-09-23T03:57:46;96682.50;;;5.96;100.00
10796;BME280;5450;42.994;23.372;2022-09-23T04:00:14;96673.81;;;5.86;100.00
10796;BME280;5450;42.994;23.372;2022-09-23T04:02:41;96666.59;;;5.79;100.00
10796;BME280;5450;42.994;23.372;2022-09-23T04:05:10;96674.31;;;5.60;100.00
10796;BME280;5450;42.994;23.372;2022-09-23T04:07:39;96680.53;;;5.68;100.00
10796;BME280;5450;42.994;23.372;2022-09-23T04:10:08;96686.38;;;5.81;100.00
10796;BME280;5450;42.994;23.372;2022-09-23T04:12:36;96702.94;;;5.91;100.00
10796;BME280;5450;42.994;23.372;2022-09-23T04:15:05;96642.66;;;5.64;100.00
10796;BME280;5450;42.994;23.372;2022-09-23T04:17:33;96621.06;;;5.32;100.00
10796;BME280;5450;42.994;23.372;2022-09-23T04:20:00;96653.59;;;5.58;100.00
10796;BME280;5450;42.994;23.372;2022-09-23T04:22:27;96623.63;;;5.43;100.00
10796;BME280;5450;42.994;23.372;2022-09-23T04:24:59;96720.63;;;6.08;100.00
10796;BME280;5450;42.994;23.372;2022-09-23T04:27:26;96651.44;;;5.84;100.00
10796;BME280;5450;42.994;23.372;2022-09-23T04:29:53;96640.50;;;5.69;100.00
10796;BME280;5450;42.994;23.372;2022-09-23T04:32:20;96587.47;;;5.59;100.00
10796;BME280;5450;42.994;23.372;2022-09-23T04:34:47;96671.13;;;5.97;100.00
10796;BME280;5450;42.994;23.372;2022-09-23T04:37:14;96730.84;;;6.21;100.00
10796;BME280;5450;42.994;23.372;2022-09-23T04:39:41;96694.31;;;6.21;100.00
10796;BME280;5450;42.994;23.372;2022-09-23T04:42:09;96738.00;;;6.29;100.00
10796;BME280;5450;42.994;23.372;2022-09-23T04:44:37;96630.25;;;5.57;100.00
10796;BME280;5450;42.994;23.372;2022-09-23T04:47:05;96655.84;;;5.72;100.00
10796;BME280;5450;42.994;23.372;2022-09-23T04:49:32;96630.84;;;5.60;100.00
10796;BME280;5450;42.994;23.372;2022-09-23T04:51:59;96712.44;;;6.23;100.00
10796;BME280;5450;42.994;23.372;2022-09-23T04:54:27;96723.00;;;6.21;100.00
10796;BME280;5450;42.994;23.372;2022-09-23T04:56:54;96723.13;;;6.20;100.00
10796;BME280;5450;42.994;23.372;2022-09-23T04:59:23;96632.84;;;5.77;100.00
10796;BME280;5450;42.994;23.372;2022-09-23T05:01:50;96644.22;;;5.76;100.00
10796;BME280;5450;42.994;23.372;2022-09-23T05:04:19;96656.88;;;5.81;100.00
10796;BME280;5450;42.994;23.372;2022-09-23T05:06:47;96722.94;;;6.11;100.00
10796;BME280;5450;42.994;23.372;2022-09-23T05:09:15;96721.69;;;6.06;100.00
10796;BME280;5450;42.994;23.372;2022-09-23T05:11:43;96717.91;;;6.20;100.00
10796;BME280;5450;42.994;23.372;2022-09-23T05:14:11;96664.34;;;5.65;100.00
10796;BME280;5450;42.994;23.372;2022-09-23T05:16:41;96712.22;;;6.05;100.00
10796;BME280;5450;42.994;23.372;2022-09-23T05:19:11;96712.59;;;6.00;100.00
10796;BME280;5450;42.994;23.372;2022-09-23T05:21:41;96671.47;;;5.63;100.00
10796;BME280;5450;42.994;23.372;2022-09-23T05:24:12;96716.16;;;5.99;100.00
10796;BME280;5450;42.994;23.372;2022-09-23T05:26:39;96712.41;;;5.92;100.00
10796;BME280;5450;42.994;23.372;2022-09-23T05:29:06;96715.09;;;6.02;100.00
10796;BME280;5450;42.994;23.372;2022-09-23T05:31:33;96699.53;;;5.91;100.00
10796;BME280;5450;42.994;23.372;2022-09-23T05:34:04;96584.59;;;5.32;100.00
10796;BME280;5450;42.994;23.372;2022-09-23T05:36:32;96614.75;;;5.55;100.00
10796;BME280;5450;42.994;23.372;2022-09-23T05:38:59;96714.34;;;6.21;100.00
10796;BME280;5450;42.994;23.372;2022-09-23T05:41:27;96703.78;;;6.22;100.00
10796;BME280;5450;42.994;23.372;2022-09-23T05:43:54;96630.06;;;5.69;100.00
10796;BME280;5450;42.994;23.372;2022-09-23T05:46:23;96711.97;;;6.48;100.00
10796;BME280;5450;42.994;23.372;2022-09-23T05:48:53;96693.00;;;6.46;100.00
10796;BME280;5450;42.994;23.372;2022-09-23T05:51:23;96706.66;;;6.59;100.00
10796;BME280;5450;42.994;23.372;2022-09-23T05:53:51;96719.34;;;6.73;100.00
10796;BME280;5450;42.994;23.372;2022-09-23T05:56:20;96702.69;;;6.74;100.00
10796;BME280;5450;42.994;23.372;2022-09-23T05:58:48;96703.28;;;6.87;100.00
10796;BME280;5450;42.994;23.372;2022-09-23T06:01:17;96706.06;;;7.05;100.00
10796;BME280;5450;42.994;23.372;2022-09-23T06:03:46;96656.13;;;6.79;100.00
10796;BME280;5450;42.994;23.372;2022-09-23T06:06:13;96713.50;;;7.28;100.00
10796;BME280;5450;42.994;23.372;2022-09-23T06:08:44;96717.66;;;7.40;100.00
10796;BME280;5450;42.994;23.372;2022-09-23T06:11:13;96663.97;;;7.17;100.00
10796;BME280;5450;42.994;23.372;2022-09-23T06:13:40;96701.41;;;7.46;100.00
10796;BME280;5450;42.994;23.372;2022-09-23T06:16:09;96659.59;;;7.18;100.00
10796;BME280;5450;42.994;23.372;2022-09-23T06:18:38;96704.41;;;7.71;100.00
10796;BME280;5450;42.994;23.372;2022-09-23T06:21:13;96707.41;;;7.76;100.00
10796;BME280;5450;42.994;23.372;2022-09-23T06:23:40;96707.81;;;7.81;100.00
10796;BME280;5450;42.994;23.372;2022-09-23T06:26:10;96715.94;;;7.87;100.00
10796;BME280;5450;42.994;23.372;2022-09-23T06:28:40;96707.94;;;7.89;100.00
10796;BME280;5450;42.994;23.372;2022-09-23T06:31:10;96682.34;;;7.83;100.00
10796;BME280;5450;42.994;23.372;2022-09-23T06:33:38;96618.53;;;7.66;100.00
10796;BME280;5450;42.994;23.372;2022-09-23T06:36:06;96698.97;;;8.47;100.00
10796;BME280;5450;42.994;23.372;2022-09-23T06:38:38;96667.66;;;8.18;100.00
10796;BME280;5450;42.994;23.372;2022-09-23T06:41:05;96691.25;;;8.46;100.00
10796;BME280;5450;42.994;23.372;2022-09-23T06:43:33;96741.31;;;8.70;100.00
10796;BME280;5450;42.994;23.372;2022-09-23T06:46:05;96654.25;;;8.58;100.00
10796;BME280;5450;42.994;23.372;2022-09-23T06:48:37;96721.38;;;8.86;100.00
10796;BME280;5450;42.994;23.372;2022-09-23T06:51:05;96629.28;;;8.36;100.00
10796;BME280;5450;42.994;23.372;2022-09-23T06:53:33;96655.44;;;8.91;100.00
10796;BME280;5450;42.994;23.372;2022-09-23T06:56:12;96660.28;;;9.03;100.00
10796;BME280;5450;42.994;23.372;2022-09-23T06:58:50;96707.28;;;9.50;100.00
10796;BME280;5450;42.994;23.372;2022-09-23T07:01:22;96701.19;;;9.67;100.00
10796;BME280;5450;42.994;23.372;2022-09-23T07:03:50;96708.53;;;9.81;100.00
10796;BME280;5450;42.994;23.372;2022-09-23T07:06:18;96570.59;;;9.09;100.00
10796;BME280;5450;42.994;23.372;2022-09-23T07:08:45;96683.84;;;9.91;100.00
10796;BME280;5450;42.994;23.372;2022-09-23T07:11:14;96697.94;;;10.16;100.00
10796;BME280;5450;42.994;23.372;2022-09-23T07:13:45;96693.81;;;10.14;100.00
10796;BME280;5450;42.994;23.372;2022-09-23T07:16:12;96648.84;;;9.83;100.00
10796;BME280;5450;42.994;23.372;2022-09-23T07:19:03;96657.91;;;10.14;100.00
10796;BME280;5450;42.994;23.372;2022-09-23T07:21:32;96576.34;;;9.90;100.00
10796;BME280;5450;42.994;23.372;2022-09-23T07:23:59;96661.31;;;10.40;100.00
10796;BME280;5450;42.994;23.372;2022-09-23T07:26:27;96606.28;;;10.05;100.00
10796;BME280;5450;42.994;23.372;2022-09-23T07:28:56;96702.56;;;10.90;100.00
10796;BME280;5450;42.994;23.372;2022-09-23T07:31:29;96551.75;;;10.17;100.00
10796;BME280;5450;42.994;23.372;2022-09-23T07:33:57;96642.75;;;10.84;100.00
10796;BME280;5450;42.994;23.372;2022-09-23T07:36:25;96728.81;;;11.23;100.00
10796;BME280;5450;42.994;23.372;2022-09-23T07:39:03;96743.81;;;11.39;100.00
10796;BME280;5450;42.994;23.372;2022-09-23T07:41:31;96606.28;;;10.89;100.00
10796;BME280;5450;42.994;23.372;2022-09-23T07:44:00;96683.13;;;11.65;100.00
10796;BME280;5450;42.994;23.372;2022-09-23T07:46:29;96714.59;;;11.90;100.00
10796;BME280;5450;42.994;23.372;2022-09-23T07:49:11;96606.31;;;11.37;100.00
10796;BME280;5450;42.994;23.372;2022-09-23T07:51:39;96602.03;;;11.76;100.00
10796;BME280;5450;42.994;23.372;2022-09-23T07:54:10;96687.13;;;12.48;100.00
10796;BME280;5450;42.994;23.372;2022-09-23T07:56:37;96600.34;;;11.99;100.00
10796;BME280;5450;42.994;23.372;2022-09-23T07:59:12;96706.06;;;12.98;100.00
10796;BME280;5450;42.994;23.372;2022-09-23T08:01:52;96605.94;;;12.43;100.00
10796;BME280;5450;42.994;23.372;2022-09-23T08:04:24;96703.72;;;13.03;100.00
10796;BME280;5450;42.994;23.372;2022-09-23T08:09:29;96605.38;;;12.64;100.00
10796;BME280;5450;42.994;23.372;2022-09-23T08:15:21;96612.06;;;13.05;100.00
10796;BME280;5450;42.994;23.372;2022-09-23T08:23:52;96721.34;;;14.24;100.00
10796;BME280;5450;42.994;23.372;2022-09-23T08:26:22;96686.88;;;14.03;100.00
10796;BME280;5450;42.994;23.372;2022-09-23T08:28:50;96668.81;;;13.92;99.30
10796;BME280;5450;42.994;23.372;2022-09-23T08:31:39;96661.31;;;13.81;100.00
10796;BME280;5450;42.994;23.372;2022-09-23T08:41:20;96689.44;;;14.11;97.39
10796;BME280;5450;42.994;23.372;2022-09-23T08:44:45;96580.38;;;13.50;98.80
10796;BME280;5450;42.994;23.372;2022-09-23T08:50:44;96689.00;;;14.22;98.37
10796;BME280;5450;42.994;23.372;2022-09-23T09:08:00;96581.00;;;15.19;76.81
10796;BME280;5450;42.994;23.372;2022-09-23T09:21:36;96684.41;;;15.54;76.67
10796;BME280;5450;42.994;23.372;2022-09-23T09:24:32;96683.16;;;14.99;81.59
10796;BME280;5450;42.994;23.372;2022-09-23T09:27:09;96684.22;;;14.69;80.09
10796;BME280;5450;42.994;23.372;2022-09-23T09:32:45;96666.63;;;14.62;81.27
10796;BME280;5450;42.994;23.372;2022-09-23T09:35:37;96672.28;;;14.59;80.28
10796;BME280;5450;42.994;23.372;2022-09-23T09:38:26;96642.75;;;14.55;83.02
10796;BME280;5450;42.994;23.372;2022-09-23T09:41:22;96665.97;;;14.74;82.44
10796;BME280;5450;42.994;23.372;2022-09-23T09:50:55;96554.47;;;14.77;79.31
10796;BME280;5450;42.994;23.372;2022-09-23T09:53:41;96679.63;;;15.85;79.31
10796;BME280;5450;42.994;23.372;2022-09-23T09:59:51;96599.09;;;15.86;76.24
10796;BME280;5450;42.994;23.372;2022-09-23T10:02:44;96623.63;;;15.67;75.72
10796;BME280;5450;42.994;23.372;2022-09-23T10:05:59;96644.88;;;16.01;75.17
10796;BME280;5450;42.994;23.372;2022-09-23T10:22:07;96653.56;;;15.67;79.67
10796;BME280;5450;42.994;23.372;2022-09-23T10:35:20;96651.38;;;15.99;78.49
10796;BME280;5450;42.994;23.372;2022-09-23T10:38:18;96637.41;;;15.83;77.42
10796;BME280;5450;42.994;23.372;2022-09-23T10:44:35;96597.75;;;15.69;79.46
10796;BME280;5450;42.994;23.372;2022-09-23T10:48:19;96625.91;;;15.98;76.35
10796;BME280;5450;42.994;23.372;2022-09-23T10:51:23;96537.88;;;15.26;70.05
10796;BME280;5450;42.994;23.372;2022-09-23T10:54:48;96629.22;;;16.06;76.40
10796;BME280;5450;42.994;23.372;2022-09-23T10:57:33;96542.41;;;15.32;79.87
10796;BME280;5450;42.994;23.372;2022-09-23T11:00:19;96544.03;;;15.33;78.91
10796;BME280;5450;42.994;23.372;2022-09-23T11:03:14;96536.22;;;15.25;71.25
10796;BME280;5450;42.994;23.372;2022-09-23T11:05:56;96618.78;;;15.98;76.81
10796;BME280;5450;42.994;23.372;2022-09-23T11:11:50;96609.75;;;15.92;76.00
10796;BME280;5450;42.994;23.372;2022-09-23T11:14:58;96534.84;;;15.50;74.63
10796;BME280;5450;42.994;23.372;2022-09-23T11:17:46;96620.69;;;15.83;79.55
10796;BME280;5450;42.994;23.372;2022-09-23T11:20:45;96590.31;;;15.58;82.97
10796;BME280;5450;42.994;23.372;2022-09-23T11:26:29;96561.38;;;15.35;74.71
10796;BME280;5450;42.994;23.372;2022-09-23T11:29:33;96505.03;;;14.99;74.38
10796;BME280;5450;42.994;23.372;2022-09-23T11:39:08;96539.75;;;15.32;78.63
10796;BME280;5450;42.994;23.372;2022-09-23T11:46:01;96643.31;;;14.86;90.98
10796;BME280;5450;42.994;23.372;2022-09-23T11:48:44;96659.75;;;14.38;100.00
10796;BME280;5450;42.994;23.372;2022-09-23T11:51:18;96643.34;;;13.76;100.00
10796;BME280;5450;42.994;23.372;2022-09-23T11:53:59;96670.41;;;13.78;100.00
10796;BME280;5450;42.994;23.372;2022-09-23T12:15:12;96654.88;;;13.15;100.00
10796;BME280;5450;42.994;23.372;2022-09-23T12:20:01;96555.59;;;12.38;100.00
10796;BME280;5450;42.994;23.372;2022-09-23T12:34:28;96628.34;;;13.54;100.00
10796;BME280;5450;42.994;23.372;2022-09-23T12:40:40;96642.06;;;13.72;100.00
10796;BME280;5450;42.994;23.372;2022-09-23T12:43:41;96643.81;;;13.80;100.00
10796;BME280;5450;42.994;23.372;2022-09-23T12:46:30;96625.25;;;13.88;100.00
10796;BME280;5450;42.994;23.372;2022-09-23T12:49:20;96610.41;;;14.01;100.00
10796;BME280;5450;42.994;23.372;2022-09-23T12:52:23;96604.34;;;14.01;100.00
10796;BME280;5450;42.994;23.372;2022-09-23T12:54:59;96497.41;;;13.30;100.00
10796;BME280;5450;42.994;23.372;2022-09-23T12:57:44;96483.78;;;13.41;100.00
10796;BME280;5450;42.994;23.372;2022-09-23T13:03:22;96570.34;;;13.98;100.00
10796;BME280;5450;42.994;23.372;2022-09-23T13:09:18;96605.97;;;13.64;100.00
10796;BME280;5450;42.994;23.372;2022-09-23T13:29:57;96547.25;;;13.62;100.00
10796;BME280;5450;42.994;23.372;2022-09-23T13:42:41;96576.06;;;13.87;100.00
10796;BME280;5450;42.994;23.372;2022-09-23T13:45:23;96553.47;;;13.69;100.00
10796;BME280;5450;42.994;23.372;2022-09-23T13:47:53;96484.94;;;13.24;100.00
10796;BME280;5450;42.994;23.372;2022-09-23T13:50:25;96524.50;;;13.61;100.00
10796;BME280;5450;42.994;23.372;2022-09-23T13:52:55;96587.72;;;13.78;100.00
10796;BME280;5450;42.994;23.372;2022-09-23T13:55:29;96468.56;;;13.14;100.00
10796;BME280;5450;42.994;23.372;2022-09-23T13:57:59;96520.72;;;13.27;100.00
10796;BME280;5450;42.994;23.372;2022-09-23T14:00:32;96490.88;;;13.41;100.00
10796;BME280;5450;42.994;23.372;2022-09-23T14:03:00;96560.75;;;13.67;100.00
10796;BME280;5450;42.994;23.372;2022-09-23T14:05:32;96457.28;;;13.20;100.00
10796;BME280;5450;42.994;23.372;2022-09-23T14:08:00;96583.72;;;13.82;100.00
10796;BME280;5450;42.994;23.372;2022-09-23T14:10:30;96535.06;;;13.91;100.00
10796;BME280;5450;42.994;23.372;2022-09-23T14:12:58;96554.09;;;13.86;100.00
10796;BME280;5450;42.994;23.372;2022-09-23T14:15:27;96533.69;;;13.51;100.00
10796;BME280;5450;42.994;23.372;2022-09-23T14:18:01;96539.53;;;13.76;100.00
10796;BME280;5450;42.994;23.372;2022-09-23T14:20:31;96535.63;;;13.72;100.00
10796;BME280;5450;42.994;23.372;2022-09-23T14:23:09;96558.31;;;13.66;100.00
10796;BME280;5450;42.994;23.372;2022-09-23T14:25:39;96495.94;;;13.13;100.00
10796;BME280;5450;42.994;23.372;2022-09-23T14:28:15;96541.63;;;13.51;100.00
10796;BME280;5450;42.994;23.372;2022-09-23T14:30:45;96537.94;;;13.37;100.00
10796;BME280;5450;42.994;23.372;2022-09-23T14:33:18;96563.13;;;13.25;100.00
10796;BME280;5450;42.994;23.372;2022-09-23T14:36:03;96437.06;;;12.53;100.00
10796;BME280;5450;42.994;23.372;2022-09-23T14:39:08;96559.31;;;13.05;100.00
10796;BME280;5450;42.994;23.372;2022-09-23T14:41:39;96539.53;;;13.01;100.00
10796;BME280;5450;42.994;23.372;2022-09-23T14:44:19;96475.97;;;12.51;100.00
10796;BME280;5450;42.994;23.372;2022-09-23T14:47:01;96469.50;;;12.53;100.00
10796;BME280;5450;42.994;23.372;2022-09-23T14:49:31;96544.44;;;13.12;100.00
10796;BME280;5450;42.994;23.372;2022-09-23T14:52:04;96490.34;;;12.63;100.00
10796;BME280;5450;42.994;23.372;2022-09-23T14:54:39;96425.41;;;12.25;100.00
10796;BME280;5450;42.994;23.372;2022-09-23T14:57:27;96542.78;;;13.11;100.00
10796;BME280;5450;42.994;23.372;2022-09-23T14:59:58;96514.50;;;12.97;100.00
10796;BME280;5450;42.994;23.372;2022-09-23T15:02:33;96451.00;;;12.39;100.00
10796;BME280;5450;42.994;23.372;2022-09-23T15:05:28;96447.75;;;12.29;100.00
10796;BME280;5450;42.994;23.372;2022-09-23T15:08:00;96496.50;;;12.55;100.00
10796;BME280;5450;42.994;23.372;2022-09-23T15:10:30;96498.25;;;12.40;100.00
10796;BME280;5450;42.994;23.372;2022-09-23T15:13:05;96540.00;;;12.82;100.00
10796;BME280;5450;42.994;23.372;2022-09-23T15:15:33;96514.06;;;12.71;100.00
10796;BME280;5450;42.994;23.372;2022-09-23T15:18:11;96535.47;;;12.68;100.00
10796;BME280;5450;42.994;23.372;2022-09-23T15:20:48;96531.59;;;12.56;100.00
10796;BME280;5450;42.994;23.372;2022-09-23T15:23:44;96574.28;;;12.51;100.00
10796;BME280;5450;42.994;23.372;2022-09-23T15:29:55;96480.09;;;11.84;100.00
10796;BME280;5450;42.994;23.372;2022-09-23T15:32:48;96606.91;;;12.50;100.00
10796;BME280;5450;42.994;23.372;2022-09-23T15:35:35;96612.72;;;12.38;100.00
10796;BME280;5450;42.994;23.372;2022-09-23T15:38:02;96468.09;;;11.65;100.00
10796;BME280;5450;42.994;23.372;2022-09-23T15:40:34;96538.34;;;11.89;100.00
10796;BME280;5450;42.994;23.372;2022-09-23T15:43:13;96571.25;;;12.32;100.00
10796;BME280;5450;42.994;23.372;2022-09-23T15:45:45;96573.63;;;12.18;100.00
10796;BME280;5450;42.994;23.372;2022-09-23T15:48:16;96574.72;;;12.24;100.00
10796;BME280;5450;42.994;23.372;2022-09-23T15:50:49;96575.63;;;12.08;100.00
10796;BME280;5450;42.994;23.372;2022-09-23T15:53:18;96555.16;;;11.80;100.00
10796;BME280;5450;42.994;23.372;2022-09-23T15:55:46;96484.84;;;11.17;100.00
10796;BME280;5450;42.994;23.372;2022-09-23T15:58:14;96558.28;;;11.75;100.00
10796;BME280;5450;42.994;23.372;2022-09-23T16:00:42;96502.03;;;11.60;100.00
10796;BME280;5450;42.994;23.372;2022-09-23T16:03:12;96484.94;;;11.48;100.00
10796;BME280;5450;42.994;23.372;2022-09-23T16:05:42;96602.53;;;12.35;100.00
10796;BME280;5450;42.994;23.372;2022-09-23T16:08:13;96559.53;;;11.95;100.00
10796;BME280;5450;42.994;23.372;2022-09-23T16:10:41;96617.53;;;12.34;100.00
10796;BME280;5450;42.994;23.372;2022-09-23T16:13:10;96623.69;;;12.02;100.00
10796;BME280;5450;42.994;23.372;2022-09-23T16:15:38;96596.88;;;11.99;100.00
10796;BME280;5450;42.994;23.372;2022-09-23T16:18:06;96559.88;;;11.92;100.00
10796;BME280;5450;42.994;23.372;2022-09-23T16:20:36;96485.91;;;11.55;100.00
10796;BME280;5450;42.994;23.372;2022-09-23T16:23:05;96546.69;;;12.00;100.00
10796;BME280;5450;42.994;23.372;2022-09-23T16:25:34;96527.06;;;11.40;100.00
10796;BME280;5450;42.994;23.372;2022-09-23T16:28:03;96545.75;;;11.61;100.00
10796;BME280;5450;42.994;23.372;2022-09-23T16:30:33;96513.59;;;11.03;100.00
10796;BME280;5450;42.994;23.372;2022-09-23T16:33:00;96603.53;;;11.71;100.00
10796;BME280;5450;42.994;23.372;2022-09-23T16:35:30;96460.22;;;10.86;100.00
10796;BME280;5450;42.994;23.372;2022-09-23T16:37:58;96551.09;;;10.97;100.00
10796;BME280;5450;42.994;23.372;2022-09-23T16:40:26;96596.94;;;11.42;100.00